Time;durP1;ratioP1;P1;durP2;ratioP2;P2;SDS_P1;SDS_P2;PMS_P1;PMS_P2;Temp;Humidity;BMP_temperature;BMP_pressure;BME280_temperature;BME280_humidity;BME280_pressure;Samples;Min_cycle;Max_cycle;Signal;HPM_P1;HPM_P2
2023/02/21 02:14:02;;;;;;;7.20;4.90;;;;;;;5.96;76.93;98261.31;107425;1265;73754;-75
2023/02/21 02:16:46;;;;;;;6.30;4.10;;;;;;;6.06;76.51;98266.55;107370;1265;60226;-74
2023/02/21 02:19:34;;;;;;;7.40;4.40;;;;;;;6.18;75.79;98262.96;107322;1267;60615;-72
2023/02/21 02:22:55;;;;;;;7.70;3.80;;;;;;;6.23;74.85;98266.87;107316;1267;73835;-75
2023/02/21 02:25:57;;;;;;;7.70;3.40;;;;;;;6.29;73.89;98265.41;107163;1267;72506;-72
2023/02/21 02:28:49;;;;;;;5.70;3.10;;;;;;;6.29;73.11;98267.23;107340;1266;70461;-71
2023/02/21 02:31:57;;;;;;;7.40;3.60;;;;;;;6.28;72.40;98257.52;107287;1266;62249;-73
2023/02/21 02:34:46;;;;;;;5.40;2.80;;;;;;;6.28;71.85;98270.58;107134;1265;59873;-72
2023/02/21 02:37:24;;;;;;;7.20;3.00;;;;;;;6.29;71.33;98271.09;107362;1266;73431;-71
2023/02/21 02:40:05;;;;;;;7.10;2.80;;;;;;;6.31;70.89;98275.09;107406;1265;72345;-71
2023/02/21 02:42:54;;;;;;;6.80;2.10;;;;;;;6.32;70.27;98282.30;107290;1272;74228;-72
2023/02/21 02:45:38;;;;;;;6.30;2.40;;;;;;;6.33;69.59;98276.72;107296;1267;61402;-71
2023/02/21 02:48:13;;;;;;;6.40;2.00;;;;;;;6.35;68.94;98276.64;107273;1267;60411;-71
2023/02/21 02:50:43;;;;;;;5.50;2.20;;;;;;;6.39;68.47;98280.77;107309;1267;73175;-72
2023/02/21 02:53:16;;;;;;;8.30;2.30;;;;;;;6.39;67.82;98273.73;107206;1267;72887;-70
2023/02/21 02:55:49;;;;;;;7.10;2.30;;;;;;;6.46;67.69;98277.50;107815;1256;72621;-70
2023/02/21 02:58:19;;;;;;;6.10;2.30;;;;;;;6.48;67.31;98270.20;107832;1256;61864;-72
2023/02/21 03:01:11;;;;;;;6.50;2.20;;;;;;;6.48;67.26;98277.48;107796;1256;61506;-72
2023/02/21 03:03:44;;;;;;;7.40;2.40;;;;;;;6.48;67.34;98276.65;108028;1259;72832;-72
2023/02/21 03:06:17;;;;;;;6.90;2.30;;;;;;;6.46;67.52;98267.90;107921;1256;73182;-73
2023/02/21 03:08:58;;;;;;;7.50;2.50;;;;;;;6.41;67.62;98275.14;108055;1256;73015;-71
2023/02/21 03:11:27;;;;;;;6.60;2.30;;;;;;;6.42;67.77;98278.37;107902;1256;61943;-70
2023/02/21 03:14:07;;;;;;;5.70;2.10;;;;;;;6.40;67.92;98281.09;108151;1256;61423;-71
2023/02/21 03:16:48;;;;;;;5.80;2.20;;;;;;;6.38;68.19;98279.89;107965;1255;74131;-71
2023/02/21 03:19:24;;;;;;;5.50;2.00;;;;;;;6.37;68.34;98271.64;108012;1256;71813;-70
2023/02/21 03:21:59;;;;;;;4.20;2.00;;;;;;;6.34;68.39;98276.05;107835;1256;72863;-70
2023/02/21 03:24:28;;;;;;;6.70;2.20;;;;;;;6.33;68.36;98281.74;107795;1256;62060;-71
2023/02/21 03:26:59;;;;;;;4.10;1.90;;;;;;;6.35;68.39;98277.38;107830;1256;60962;-70
2023/02/21 03:29:51;;;;;;;5.20;2.00;;;;;;;6.32;68.29;98287.00;107760;1256;73651;-69
2023/02/21 03:34:57;;;;;;;4.40;1.80;;;;;;;6.37;68.07;98298.89;107781;1256;71789;-70
2023/02/21 03:37:35;;;;;;;4.10;2.00;;;;;;;6.40;68.03;98303.10;108003;1256;60056;-70
2023/02/21 03:40:13;;;;;;;8.40;2.30;;;;;;;6.40;67.95;98295.99;107980;1256;61552;-70
2023/02/21 03:42:49;;;;;;;5.80;1.90;;;;;;;6.38;67.92;98305.14;108031;1256;74084;-70
2023/02/21 03:45:19;;;;;;;6.30;1.90;;;;;;;6.39;67.94;98314.77;108020;1256;73237;-69
2023/02/21 03:48:03;;;;;;;7.50;2.30;;;;;;;6.39;67.89;98307.14;107825;1256;73950;-69
2023/02/21 03:50:32;;;;;;;6.10;1.90;;;;;;;6.40;67.75;98309.15;107980;1256;60379;-69
2023/02/21 03:53:01;;;;;;;5.00;2.20;;;;;;;6.41;67.73;98294.16;107837;1256;60104;-69
2023/02/21 03:55:30;;;;;;;7.20;2.00;;;;;;;6.38;67.67;98291.25;108097;1256;73346;-70
2023/02/21 03:57:58;;;;;;;6.50;2.00;;;;;;;6.40;67.70;98299.17;108117;1255;73069;-70
2023/02/21 04:00:27;;;;;;;6.50;2.20;;;;;;;6.36;67.77;98291.16;108078;1256;72775;-70
2023/02/21 04:02:56;;;;;;;5.90;2.40;;;;;;;6.34;67.74;98298.02;108136;1255;62133;-71
2023/02/21 04:05:48;;;;;;;4.50;1.90;;;;;;;6.37;67.64;98296.13;107977;1256;60315;-74
2023/02/21 04:08:16;;;;;;;5.90;1.80;;;;;;;6.34;67.44;98298.77;108015;1255;73009;-71
2023/02/21 04:10:45;;;;;;;6.10;1.80;;;;;;;6.36;67.32;98305.74;108053;1255;72526;-69
2023/02/21 04:13:23;;;;;;;5.70;1.80;;;;;;;6.36;66.94;98300.91;108123;1255;73024;-70
2023/02/21 04:15:53;;;;;;;5.00;1.70;;;;;;;6.41;66.78;98301.16;107985;1256;61181;-71
2023/02/21 04:18:22;;;;;;;5.40;1.70;;;;;;;6.43;66.07;98300.29;107959;1256;60297;-70
2023/02/21 04:20:51;;;;;;;8.20;1.70;;;;;;;6.49;65.78;98298.58;107842;1256;72400;-70
2023/02/21 04:23:21;;;;;;;4.50;1.60;;;;;;;6.50;65.59;98300.16;108040;1256;73198;-72
2023/02/21 04:25:50;;;;;;;5.50;1.30;;;;;;;6.49;65.57;98290.63;107747;1256;72418;-70
2023/02/21 04:28:36;;;;;;;8.00;1.80;;;;;;;6.52;65.42;98286.55;107777;1256;62418;-70
2023/02/21 04:31:04;;;;;;;6.30;1.80;;;;;;;6.52;65.44;98285.75;108016;1255;60994;-71
2023/02/21 04:33:33;;;;;;;5.20;1.60;;;;;;;6.50;65.59;98284.04;107984;1256;73733;-70
2023/02/21 04:36:02;;;;;;;5.80;2.00;;;;;;;6.42;65.95;98301.73;107818;1257;72727;-69
2023/02/21 04:38:36;;;;;;;8.50;2.40;;;;;;;6.35;66.46;98296.09;107983;1256;72678;-69
2023/02/21 04:41:05;;;;;;;8.20;1.80;;;;;;;6.32;66.76;98293.05;107964;1256;61303;-71
2023/02/21 04:43:33;;;;;;;7.60;2.00;;;;;;;6.30;67.12;98287.04;107751;1256;59876;-69
2023/02/21 04:46:02;;;;;;;5.90;1.70;;;;;;;6.27;67.36;98288.98;107983;1256;72831;-69
2023/02/21 04:48:31;;;;;;;5.70;1.90;;;;;;;6.22;67.61;98292.80;107892;1256;71197;-69
2023/02/21 04:50:59;;;;;;;5.60;1.80;;;;;;;6.17;67.70;98302.57;107760;1256;73954;-71
2023/02/21 04:53:43;;;;;;;5.40;1.90;;;;;;;6.12;67.90;98301.09;108044;1256;61593;-70
2023/02/21 04:56:12;;;;;;;7.20;2.00;;;;;;;6.12;67.94;98302.90;107915;1256;61250;-71
2023/02/21 04:58:41;;;;;;;7.90;2.20;;;;;;;6.10;67.87;98306.35;108051;1256;73191;-70
2023/02/21 05:01:14;;;;;;;5.10;2.00;;;;;;;6.12;67.74;98303.22;108055;1256;72450;-71
2023/02/21 05:03:43;;;;;;;6.60;1.90;;;;;;;6.15;67.53;98309.96;108112;1256;73914;-71
2023/02/21 05:06:22;;;;;;;5.40;1.80;;;;;;;6.17;67.44;98307.77;108035;1255;60341;-70
2023/02/21 05:08:50;;;;;;;5.50;2.00;;;;;;;6.18;67.36;98311.78;108098;1255;59951;-70
2023/02/21 05:11:21;;;;;;;5.40;1.70;;;;;;;6.18;67.18;98311.52;108025;1256;71924;-70
2023/02/21 05:14:04;;;;;;;7.60;2.10;;;;;;;6.21;67.10;98313.66;108050;1256;73119;-70
2023/02/21 05:17:07;;;;;;;6.10;2.10;;;;;;;6.24;67.04;98317.39;107737;1255;72936;-70
2023/02/21 05:19:56;;;;;;;6.60;2.10;;;;;;;6.28;66.83;98321.36;107913;1256;62151;-71
2023/02/21 05:22:24;;;;;;;5.70;1.90;;;;;;;6.30;66.76;98317.36;107863;1257;62393;-69
2023/02/21 05:24:52;;;;;;;5.00;1.80;;;;;;;6.30;66.73;98316.16;107834;1257;73283;-68
2023/02/21 05:27:21;;;;;;;6.60;2.00;;;;;;;6.28;66.73;98320.35;107955;1257;70972;-70
2023/02/21 05:29:51;;;;;;;7.30;1.90;;;;;;;6.29;66.74;98324.43;107986;1260;72579;-71
2023/02/21 05:32:20;;;;;;;5.80;1.90;;;;;;;6.28;66.74;98315.21;107977;1258;60968;-71
2023/02/21 05:34:48;;;;;;;6.40;1.70;;;;;;;6.29;66.69;98318.77;107890;1257;61519;-69
2023/02/21 05:37:19;;;;;;;6.90;2.10;;;;;;;6.30;66.62;98316.98;107865;1258;74270;-70
2023/02/21 05:39:48;;;;;;;4.40;1.70;;;;;;;6.32;66.47;98320.90;107943;1261;72988;-70
2023/02/21 05:42:17;;;;;;;7.20;2.20;;;;;;;6.35;66.40;98315.67;107985;1256;72337;-71
2023/02/21 05:44:46;;;;;;;5.00;1.90;;;;;;;6.38;66.30;98316.42;107894;1256;60376;-70
2023/02/21 05:47:15;;;;;;;5.30;2.00;;;;;;;6.37;66.25;98324.65;108027;1257;60606;-70
2023/02/21 05:49:44;;;;;;;8.70;1.90;;;;;;;6.44;66.14;98322.73;107976;1257;72124;-70
2023/02/21 05:52:13;;;;;;;5.80;1.60;;;;;;;6.49;65.93;98321.85;107837;1258;73734;-70
2023/02/21 05:54:42;;;;;;;7.10;2.00;;;;;;;6.53;65.71;98324.61;107768;1257;73299;-70
2023/02/21 05:57:11;;;;;;;5.40;1.70;;;;;;;6.55;65.64;98327.71;107845;1261;61720;-70
2023/02/21 05:59:39;;;;;;;4.70;1.80;;;;;;;6.57;65.50;98330.55;107815;1258;60374;-70
2023/02/21 06:02:09;;;;;;;6.20;1.90;;;;;;;6.61;65.44;98328.59;107820;1257;73208;-70
2023/02/21 06:04:37;;;;;;;5.80;1.90;;;;;;;6.68;65.35;98329.90;107785;1257;73929;-71
2023/02/21 06:07:05;;;;;;;5.00;1.90;;;;;;;6.70;65.21;98331.03;107757;1261;71643;-70
2023/02/21 06:09:37;;;;;;;4.80;1.40;;;;;;;6.72;65.28;98329.89;107966;1259;61340;-70
2023/02/21 06:12:05;;;;;;;4.50;1.30;;;;;;;6.75;65.31;98328.46;107986;1256;60477;-70
2023/02/21 06:14:39;;;;;;;5.10;1.40;;;;;;;6.78;65.16;98339.21;107983;1256;73405;-70
2023/02/21 06:17:08;;;;;;;7.00;1.70;;;;;;;6.80;65.16;98329.03;107996;1260;73188;-70
2023/02/21 06:19:36;;;;;;;4.70;1.50;;;;;;;6.84;65.08;98332.75;107974;1258;73025;-69
2023/02/21 06:22:05;;;;;;;4.40;1.30;;;;;;;6.83;64.99;98337.60;108014;1257;61910;-70
2023/02/21 06:24:33;;;;;;;5.50;1.50;;;;;;;6.87;64.82;98347.84;107962;1256;60372;-70
2023/02/21 06:27:02;;;;;;;6.40;1.50;;;;;;;6.90;64.51;98334.73;107772;1257;75156;-70
2023/02/21 06:29:31;;;;;;;4.70;1.60;;;;;;;6.93;64.33;98337.30;107888;1257;73041;-70
2023/02/21 06:31:59;;;;;;;4.30;1.50;;;;;;;6.98;64.12;98332.60;107744;1258;73620;-70
2023/02/21 06:34:28;;;;;;;4.90;1.50;;;;;;;7.00;63.81;98345.06;107796;1257;60428;-70
2023/02/21 06:36:57;;;;;;;5.10;1.50;;;;;;;7.04;63.52;98341.54;107816;1257;60329;-71
2023/02/21 06:39:27;;;;;;;3.90;1.50;;;;;;;7.10;63.31;98342.85;107803;1257;73185;-70
2023/02/21 06:41:55;;;;;;;3.50;1.30;;;;;;;7.12;63.16;98354.02;107798;1257;73405;-71
2023/02/21 06:44:23;;;;;;;5.00;1.60;;;;;;;7.19;63.12;98359.08;107796;1257;71000;-70
2023/02/21 06:46:55;;;;;;;5.50;1.50;;;;;;;7.23;62.97;98354.91;107779;1257;60148;-70
2023/02/21 06:49:23;;;;;;;4.90;1.60;;;;;;;7.30;62.87;98351.77;107849;1257;60690;-71
2023/02/21 06:51:52;;;;;;;6.50;1.50;;;;;;;7.32;62.66;98359.84;107806;1261;73968;-69
2023/02/21 06:54:20;;;;;;;6.70;1.80;;;;;;;7.34;62.54;98355.23;107787;1257;72625;-71
2023/02/21 06:56:49;;;;;;;7.90;1.70;;;;;;;7.40;62.47;98360.49;107796;1257;72416;-70
2023/02/21 06:59:19;;;;;;;6.10;1.70;;;;;;;7.48;62.49;98359.30;107781;1258;61651;-71
2023/02/21 07:01:47;;;;;;;4.30;1.40;;;;;;;7.62;62.34;98362.86;107797;1257;60740;-69
2023/02/21 07:04:16;;;;;;;5.70;1.30;;;;;;;7.75;61.72;98371.77;107820;1259;75198;-71
2023/02/21 07:06:44;;;;;;;4.30;1.50;;;;;;;7.85;61.38;98366.52;107762;1257;72278;-68
2023/02/21 07:09:13;;;;;;;4.70;1.70;;;;;;;7.88;60.83;98363.17;107727;1257;71810;-69
2023/02/21 07:11:43;;;;;;;3.90;1.30;;;;;;;7.92;60.98;98356.81;107764;1257;60570;-71
2023/02/21 07:14:11;;;;;;;5.20;1.90;;;;;;;7.88;60.29;98360.61;107818;1257;60541;-69
2023/02/21 07:16:44;;;;;;;4.90;1.40;;;;;;;7.87;60.34;98354.99;107904;1259;73291;-69
2023/02/21 07:19:14;;;;;;;4.60;1.50;;;;;;;7.84;60.38;98363.65;108010;1257;73820;-71
2023/02/21 07:21:43;;;;;;;6.30;1.70;;;;;;;7.87;60.49;98358.34;108001;1256;73359;-69
2023/02/21 07:24:11;;;;;;;4.80;1.40;;;;;;;7.90;60.42;98360.04;107969;1259;61609;-69
2023/02/21 07:26:39;;;;;;;4.70;1.70;;;;;;;7.87;60.12;98363.19;107894;1257;60313;-71
2023/02/21 07:29:08;;;;;;;4.90;1.30;;;;;;;7.84;60.19;98359.77;108043;1259;74572;-70
2023/02/21 07:31:36;;;;;;;6.00;1.30;;;;;;;7.86;60.17;98359.21;107905;1256;73118;-69
2023/02/21 07:34:06;;;;;;;6.60;1.90;;;;;;;7.82;60.09;98352.17;107958;1256;71451;-70
2023/02/21 07:36:36;;;;;;;5.50;1.60;;;;;;;7.82;60.12;98347.80;107972;1259;60798;-70
2023/02/21 07:39:07;;;;;;;5.40;1.60;;;;;;;7.76;60.08;98354.45;108067;1256;61578;-70
2023/02/21 07:41:37;;;;;;;5.40;1.50;;;;;;;7.78;60.16;98350.70;108004;1260;74106;-70
2023/02/21 07:44:06;;;;;;;6.10;1.40;;;;;;;7.83;60.33;98344.96;108063;1257;73822;-71
2023/02/21 07:46:40;;;;;;;7.30;1.70;;;;;;;7.89;60.25;98345.83;107977;1256;72591;-70
2023/02/21 07:49:09;;;;;;;5.70;1.60;;;;;;;8.00;60.23;98349.76;107942;1257;61943;-71
2023/02/21 07:51:38;;;;;;;6.50;1.70;;;;;;;8.14;60.01;98347.55;108001;1256;61402;-69
2023/02/21 07:54:06;;;;;;;5.70;1.70;;;;;;;8.21;59.34;98346.19;108022;1259;75145;-71
2023/02/21 07:56:35;;;;;;;4.90;1.40;;;;;;;8.18;59.14;98337.61;107996;1256;73834;-72
2023/02/21 07:59:03;;;;;;;6.20;1.80;;;;;;;8.15;59.05;98334.45;107986;1256;73370;-69
2023/02/21 08:01:33;;;;;;;6.30;1.30;;;;;;;8.20;58.98;98336.27;107963;1256;60343;-70
2023/02/21 08:04:01;;;;;;;6.00;1.90;;;;;;;8.23;58.81;98338.21;108050;1256;60467;-70
2023/02/21 08:06:34;;;;;;;7.10;1.60;;;;;;;8.28;58.86;98338.55;108015;1256;74116;-69
2023/02/21 08:09:03;;;;;;;8.30;2.30;;;;;;;8.34;58.44;98343.34;108040;1257;72974;-70
2023/02/21 08:11:33;;;;;;;5.90;1.60;;;;;;;8.48;58.50;98350.80;108025;1257;71360;-69
2023/02/21 08:14:02;;;;;;;7.10;1.80;;;;;;;8.63;58.15;98346.18;108038;1256;60387;-70
2023/02/21 08:16:31;;;;;;;6.00;1.80;;;;;;;8.74;57.69;98347.56;108027;1260;61486;-71
2023/02/21 08:19:04;;;;;;;5.60;1.60;;;;;;;8.76;57.33;98345.48;108026;1256;73491;-70
2023/02/21 08:21:32;;;;;;;5.90;1.70;;;;;;;8.75;57.14;98345.25;108024;1256;72797;-69
2023/02/21 08:24:01;;;;;;;7.10;1.90;;;;;;;8.70;56.88;98350.66;107934;1259;71494;-69
2023/02/21 08:26:30;;;;;;;8.50;1.90;;;;;;;8.66;56.69;98348.34;107715;1257;60535;-71
2023/02/21 08:28:59;;;;;;;6.80;2.00;;;;;;;8.55;56.46;98364.21;107775;1259;60907;-70
2023/02/21 08:31:28;;;;;;;7.00;1.90;;;;;;;8.49;56.71;98360.45;107755;1257;73088;-69
2023/02/21 08:33:56;;;;;;;6.70;2.00;;;;;;;8.47;56.65;98360.66;107759;1257;72392;-72
2023/02/21 08:36:33;;;;;;;7.40;2.10;;;;;;;8.46;56.36;98353.55;107754;1257;71080;-71
2023/02/21 08:39:01;;;;;;;4.80;1.90;;;;;;;8.45;56.21;98350.74;107776;1258;60326;-69
2023/02/21 08:41:35;;;;;;;7.30;1.90;;;;;;;8.43;56.16;98352.54;107738;1259;60314;-70
2023/02/21 08:44:05;;;;;;;6.50;1.70;;;;;;;8.47;56.39;98356.36;107848;1259;73032;-70
2023/02/21 08:46:35;;;;;;;6.20;2.00;;;;;;;8.45;56.58;98354.38;107738;1259;73000;-70
2023/02/21 08:49:04;;;;;;;7.70;2.20;;;;;;;8.43;56.64;98352.39;107762;1258;73612;-69
2023/02/21 08:51:33;;;;;;;7.40;2.00;;;;;;;8.45;56.63;98363.29;107722;1257;60433;-70
2023/02/21 08:54:03;;;;;;;6.30;2.00;;;;;;;8.50;56.52;98345.70;107767;1259;60571;-70
2023/02/21 08:56:32;;;;;;;6.10;1.80;;;;;;;8.53;56.40;98347.77;107745;1258;74809;-71
2023/02/21 08:59:00;;;;;;;4.50;1.60;;;;;;;8.53;57.25;98373.91;107750;1257;71712;-68
2023/02/21 09:01:31;;;;;;;5.60;1.80;;;;;;;8.40;58.79;98351.58;107773;1259;71951;-70
2023/02/21 09:04:02;;;;;;;6.30;2.00;;;;;;;8.20;59.62;98347.07;107784;1258;61482;-70
2023/02/21 09:06:30;;;;;;;6.80;2.10;;;;;;;8.10;59.93;98340.74;107787;1258;62142;-70
2023/02/21 09:09:01;;;;;;;7.00;1.90;;;;;;;8.06;60.02;98349.50;107792;1259;73039;-70
2023/02/21 09:11:29;;;;;;;8.50;2.00;;;;;;;8.07;60.10;98357.84;107759;1257;72475;-70
2023/02/21 09:13:57;;;;;;;5.40;2.00;;;;;;;8.14;59.76;98347.42;107740;1257;71956;-69
2023/02/21 09:16:26;;;;;;;7.10;2.00;;;;;;;8.25;59.87;98354.73;107916;1257;60616;-68
2023/02/21 09:18:59;;;;;;;8.30;1.80;;;;;;;8.33;59.59;98348.99;108018;1258;60879;-69
2023/02/21 09:21:28;;;;;;;5.50;1.70;;;;;;;8.38;59.72;98343.64;108032;1259;71898;-70
2023/02/21 09:23:58;;;;;;;6.80;2.20;;;;;;;8.38;59.55;98354.77;108017;1257;72784;-70
2023/02/21 09:26:30;;;;;;;5.30;1.70;;;;;;;8.40;59.43;98350.05;107961;1256;74130;-70
2023/02/21 09:28:59;;;;;;;6.50;2.10;;;;;;;8.42;59.33;98345.55;107998;1259;62425;-69
2023/02/21 09:31:28;;;;;;;6.40;1.70;;;;;;;8.45;59.26;98337.89;107939;1257;60119;-70
2023/02/21 09:33:56;;;;;;;6.50;2.10;;;;;;;8.47;58.67;98342.95;107992;1259;75838;-70
2023/02/21 09:36:27;;;;;;;6.30;1.90;;;;;;;8.56;58.27;98329.41;108010;1257;71653;-69
2023/02/21 09:38:59;;;;;;;6.90;1.90;;;;;;;8.77;57.57;98331.78;107973;1256;72896;-69
2023/02/21 09:41:27;;;;;;;6.00;1.80;;;;;;;9.04;56.85;98330.39;107962;1257;61224;-71
2023/02/21 09:43:56;;;;;;;5.20;1.60;;;;;;;9.27;55.64;98329.40;107985;1256;60612;-69
2023/02/21 09:46:37;;;;;;;5.60;2.60;;;;;;;9.40;55.26;98322.10;108012;1258;74165;-70
2023/02/21 09:49:12;;;;;;;6.60;1.90;;;;;;;9.49;54.70;98321.09;107834;1256;72702;-71
2023/02/21 09:51:42;;;;;;;6.60;2.00;;;;;;;9.60;54.40;98317.48;107910;1260;73959;-70
2023/02/21 09:54:35;;;;;;;6.70;1.90;;;;;;;9.73;54.12;98313.61;107865;1256;60741;-70
2023/02/21 09:57:05;;;;;;;6.60;1.80;;;;;;;9.86;53.22;98309.47;107853;1257;60797;-69
2023/02/21 09:59:34;;;;;;;5.20;1.40;;;;;;;9.88;52.50;98312.05;107981;1257;74105;-69
2023/02/21 10:02:10;;;;;;;5.30;1.70;;;;;;;9.82;52.10;98323.34;107852;1259;71841;-70
2023/02/21 10:04:44;;;;;;;6.20;1.60;;;;;;;9.73;52.33;98322.20;107997;1256;73053;-69
2023/02/21 10:07:28;;;;;;;6.70;2.20;;;;;;;9.53;54.90;98327.33;107851;1257;61105;-70
2023/02/21 10:10:02;;;;;;;6.30;1.70;;;;;;;9.13;56.65;98333.02;107725;1258;61353;-69
2023/02/21 10:12:56;;;;;;;7.30;1.60;;;;;;;8.84;57.84;98337.08;107832;1257;72640;-70
2023/02/21 10:16:15;;;;;;;6.60;1.90;;;;;;;8.62;58.22;98340.46;107927;1256;73688;-70
2023/02/21 10:32:49;;;;;;;4.70;1.20;;;;;;;7.31;64.58;98369.19;105464;1287;613498;-74
2023/02/21 10:35:20;;;;;;;6.90;1.40;;;;;;;7.07;66.73;98358.34;107185;1266;178611;-73
2023/02/21 10:37:53;;;;;;;4.70;1.50;;;;;;;6.92;67.54;98356.53;107401;1267;59382;-70
2023/02/21 10:40:40;;;;;;;6.70;1.90;;;;;;;6.84;68.35;98359.09;107313;1267;71993;-73
2023/02/21 10:43:27;;;;;;;6.20;1.80;;;;;;;6.81;69.03;98357.42;107313;1267;73750;-70
2023/02/21 10:46:18;;;;;;;5.40;1.70;;;;;;;6.80;69.62;98353.27;107300;1267;74194;-71
2023/02/21 10:48:49;;;;;;;7.20;1.70;;;;;;;6.80;70.12;98359.07;107282;1267;61375;-72
2023/02/21 10:51:30;;;;;;;7.80;1.90;;;;;;;6.76;70.73;98393.98;107308;1267;60986;-75
2023/02/21 10:54:20;;;;;;;4.50;1.00;;;;;;;6.65;70.89;98389.17;107309;1267;73655;-72
2023/02/21 10:56:51;;;;;;;5.70;1.40;;;;;;;6.29;69.78;98415.73;108017;1256;73945;-72
2023/02/21 10:59:27;;;;;;;4.10;1.60;;;;;;;5.82;69.82;98393.20;108035;1255;72380;-73
2023/02/21 11:01:56;;;;;;;4.50;1.20;;;;;;;5.52;70.84;98388.85;107874;1256;60953;-73
2023/02/21 11:04:29;;;;;;;5.30;1.80;;;;;;;5.48;71.79;98387.24;108055;1254;59539;-74
2023/02/21 11:07:06;;;;;;;5.10;1.70;;;;;;;5.54;72.80;98397.40;108098;1254;72024;-72
2023/02/21 11:09:43;;;;;;;5.10;1.70;;;;;;;5.66;73.51;98384.55;108108;1254;72766;-73
2023/02/21 11:12:17;;;;;;;5.20;1.70;;;;;;;5.81;73.96;98386.27;108079;1254;72716;-72
2023/02/21 11:14:51;;;;;;;6.60;1.90;;;;;;;5.97;74.35;98376.34;108047;1256;60993;-73
2023/02/21 11:17:20;;;;;;;5.60;2.00;;;;;;;6.11;74.40;98376.64;108104;1254;60315;-72
2023/02/21 11:20:08;;;;;;;6.40;2.10;;;;;;;6.22;74.51;98394.55;108188;1254;72059;-75
2023/02/21 11:22:41;;;;;;;4.80;1.60;;;;;;;6.31;74.47;98399.65;108152;1256;72376;-72
2023/02/21 11:25:21;;;;;;;6.40;2.10;;;;;;;6.36;74.47;98393.02;108167;1255;73785;-72
2023/02/21 11:28:16;;;;;;;9.50;2.30;;;;;;;6.46;74.60;98408.20;108105;1257;62163;-74
2023/02/21 11:31:02;;;;;;;5.90;2.00;;;;;;;6.53;74.67;98389.86;108131;1256;61174;-72
2023/02/21 11:33:34;;;;;;;6.10;1.80;;;;;;;6.62;74.78;98390.18;108146;1256;72320;-74
2023/02/21 11:36:16;;;;;;;9.30;2.50;;;;;;;6.67;74.75;98390.59;108037;1256;73303;-72
2023/02/21 11:39:04;;;;;;;3.70;1.60;;;;;;;6.69;74.26;98386.70;108064;1259;72383;-73
2023/02/21 11:41:48;;;;;;;5.50;2.00;;;;;;;6.78;73.64;98388.35;107900;1256;61178;-73
2023/02/21 11:44:26;;;;;;;6.40;1.70;;;;;;;6.91;73.31;98396.77;108039;1259;60621;-73
2023/02/21 11:47:08;;;;;;;5.30;1.80;;;;;;;7.06;72.98;98393.75;107935;1255;73351;-73
2023/02/21 11:50:00;;;;;;;5.50;1.60;;;;;;;7.17;72.04;98400.41;107936;1255;72050;-73
2023/02/21 11:52:36;;;;;;;7.10;1.90;;;;;;;7.31;71.45;98408.12;107871;1260;73964;-72
2023/02/21 11:55:11;;;;;;;4.90;1.50;;;;;;;7.40;70.92;98401.55;107918;1255;59719;-72
2023/02/21 11:57:50;;;;;;;5.80;1.90;;;;;;;7.51;70.62;98406.23;107930;1256;61263;-73
2023/02/21 12:00:26;;;;;;;5.60;1.70;;;;;;;7.63;70.37;98412.03;107941;1256;74117;-72
2023/02/21 12:02:54;;;;;;;6.50;1.90;;;;;;;7.65;68.91;98418.65;107917;1256;70949;-72
2023/02/21 12:05:33;;;;;;;5.30;1.50;;;;;;;7.68;68.50;98404.35;107935;1255;72005;-70
2023/02/21 12:08:35;;;;;;;7.50;1.90;;;;;;;7.70;68.25;98409.86;107839;1255;60361;-71
2023/02/21 12:11:35;;;;;;;5.00;1.30;;;;;;;7.68;67.29;98433.70;107941;1255;61293;-72
2023/02/21 12:14:07;;;;;;;4.80;1.30;;;;;;;7.67;67.37;98421.23;107947;1255;73846;-74
2023/02/21 12:16:44;;;;;;;2.60;1.00;;;;;;;7.65;67.85;98420.16;107929;1255;72089;-72
2023/02/21 12:19:51;;;;;;;3.40;1.20;;;;;;;7.62;68.13;98418.54;107923;1260;73597;-73
2023/02/21 12:22:35;;;;;;;4.50;1.30;;;;;;;7.55;68.11;98418.44;108069;1256;61223;-71
2023/02/21 12:25:19;;;;;;;4.80;1.60;;;;;;;7.54;68.14;98413.05;108129;1255;60275;-72
2023/02/21 12:27:54;;;;;;;5.50;1.80;;;;;;;7.57;67.97;98416.82;108090;1256;73920;-72
2023/02/21 12:30:58;;;;;;;4.90;1.80;;;;;;;7.68;67.75;98419.99;108079;1256;72926;-71
2023/02/21 12:33:48;;;;;;;3.80;1.50;;;;;;;7.82;67.30;98417.05;108142;1255;73733;-71
2023/02/21 12:40:43;;;;;;;4.40;1.30;;;;;;;8.08;65.02;98419.06;108079;1255;60912;-70
2023/02/21 12:43:18;;;;;;;4.10;1.30;;;;;;;8.22;64.74;98419.89;107924;1256;72455;-70
2023/02/21 12:46:08;;;;;;;3.60;1.20;;;;;;;8.36;64.08;98413.15;108082;1255;71589;-71
2023/02/21 12:49:03;;;;;;;3.20;1.20;;;;;;;8.53;63.29;98418.23;108137;1255;73979;-72
2023/02/21 12:51:59;;;;;;;4.90;1.30;;;;;;;8.62;61.74;98421.92;108032;1256;61856;-70
2023/02/21 12:54:57;;;;;;;2.80;1.00;;;;;;;8.67;61.45;98422.80;108001;1256;60608;-72
2023/02/21 12:57:41;;;;;;;4.00;1.50;;;;;;;8.61;61.07;98413.23;108041;1255;74195;-71
2023/02/21 13:00:39;;;;;;;5.00;1.10;;;;;;;8.53;60.67;98423.33;108105;1256;73608;-71
2023/02/21 13:03:29;;;;;;;4.50;1.50;;;;;;;8.55;60.62;98433.89;107924;1256;70790;-72
2023/02/21 13:06:11;;;;;;;4.20;1.30;;;;;;;8.60;60.73;98456.31;108094;1256;60335;-70
2023/02/21 13:08:53;;;;;;;;;;;;;;;8.55;60.69;98452.40;108029;1255;59632;-69
2023/02/21 13:11:26;;;;;;;5.50;1.70;;;;;;;8.46;61.20;98457.21;107968;1256;74232;-71
2023/02/21 13:13:55;;;;;;;5.50;1.80;;;;;;;8.33;61.46;98464.33;107822;1255;73649;-71
2023/02/21 13:16:23;;;;;;;5.60;1.90;;;;;;;8.21;61.63;98461.48;107912;1256;72558;-70
2023/02/21 13:19:01;;;;;;;5.30;1.80;;;;;;;8.17;61.89;98458.84;107845;1256;59709;-71
2023/02/21 13:21:59;;;;;;;5.10;1.60;;;;;;;8.13;61.72;98471.90;107878;1255;59773;-70
2023/02/21 13:25:24;;;;;;;6.20;1.50;;;;;;;8.13;61.60;98472.26;107884;1256;73734;-70
2023/02/21 13:28:00;;;;;;;7.00;1.60;;;;;;;8.18;61.75;98466.91;107476;1263;74002;-71
2023/02/21 13:30:40;;;;;;;3.80;1.50;;;;;;;8.22;61.94;98466.63;107861;1255;72231;-70
2023/02/21 13:33:25;;;;;;;4.90;1.50;;;;;;;8.27;61.95;98463.95;107883;1256;60735;-71
2023/02/21 13:35:57;;;;;;;5.50;1.80;;;;;;;8.31;61.80;98468.56;107895;1257;59722;-71
2023/02/21 13:38:28;;;;;;;4.80;1.40;;;;;;;8.29;61.59;98462.69;107884;1256;73111;-72
2023/02/21 13:41:08;;;;;;;6.20;1.80;;;;;;;8.27;61.52;98469.85;107918;1254;71834;-72
2023/02/21 13:43:37;;;;;;;4.10;1.40;;;;;;;8.23;61.61;98471.35;108077;1254;72852;-69
2023/02/21 13:46:44;;;;;;;5.50;1.70;;;;;;;8.17;61.38;98472.35;107956;1255;61394;-72
2023/02/21 13:49:47;;;;;;;5.60;1.60;;;;;;;8.10;61.28;98480.04;107920;1256;59786;-70
2023/02/21 13:52:36;;;;;;;5.60;2.00;;;;;;;8.08;61.17;98488.45;107868;1256;73624;-71
2023/02/21 13:55:10;;;;;;;4.10;1.50;;;;;;;8.07;61.89;98488.85;107963;1256;73725;-72
2023/02/21 13:57:56;;;;;;;4.90;1.80;;;;;;;8.04;62.34;98490.11;107907;1256;73743;-69
2023/02/21 14:00:27;;;;;;;3.20;1.40;;;;;;;7.99;62.86;98482.65;107966;1256;60213;-70
2023/02/21 14:02:59;;;;;;;3.80;1.50;;;;;;;8.00;62.88;98493.64;107919;1256;60995;-70
2023/02/21 14:05:54;;;;;;;6.20;2.10;;;;;;;8.02;62.84;98492.24;107928;1256;72180;-71
2023/02/21 14:08:48;;;;;;;5.80;1.70;;;;;;;8.07;62.86;98500.02;107780;1255;72084;-71
2023/02/21 14:11:22;;;;;;;3.80;1.60;;;;;;;8.07;62.72;98496.73;107859;1255;73117;-72
2023/02/21 14:14:11;;;;;;;5.80;1.70;;;;;;;8.06;62.75;98490.67;107937;1256;62382;-69
2023/02/21 14:16:51;;;;;;;7.60;2.40;;;;;;;8.06;62.77;98498.56;107887;1256;61127;-70
2023/02/21 14:19:36;;;;;;;4.20;1.60;;;;;;;8.03;62.78;98507.73;107945;1255;72898;-71
2023/02/21 14:22:23;;;;;;;3.70;1.50;;;;;;;8.02;62.85;98514.06;107959;1255;71879;-71
2023/02/21 14:25:06;;;;;;;4.00;1.30;;;;;;;8.02;62.90;98528.48;107977;1260;72968;-70
2023/02/21 14:27:36;;;;;;;5.00;1.80;;;;;;;8.02;63.52;98537.10;107933;1255;62991;-69
2023/02/21 14:30:22;;;;;;;4.20;1.70;;;;;;;8.00;63.81;98533.41;108005;1255;61304;-70
2023/02/21 14:32:51;;;;;;;6.30;1.50;;;;;;;7.91;63.37;98540.56;107994;1255;74307;-71
2023/02/21 14:35:36;;;;;;;3.70;1.30;;;;;;;7.86;63.02;98539.09;107984;1256;71463;-71
2023/02/21 14:38:08;;;;;;;3.20;1.20;;;;;;;7.80;62.41;98543.81;107942;1258;71406;-70
2023/02/21 14:41:01;;;;;;;4.30;1.20;;;;;;;7.78;61.92;98543.25;108049;1254;61659;-70
2023/02/21 14:43:37;;;;;;;2.20;0.90;;;;;;;7.76;61.43;98549.02;108200;1254;59941;-70
2023/02/21 14:46:25;;;;;;;5.50;1.30;;;;;;;7.76;60.94;98553.05;108161;1254;71756;-70
2023/02/21 14:49:15;;;;;;;3.80;1.30;;;;;;;7.75;60.78;98556.90;108137;1254;72963;-72